METAR Data
IDs: Format: Raw Decoded Include TAF

Data at: 0646 UTC 23 Feb 2019

PHNL 230553Z 00000KT 10SM FEW020 FEW035 23/18 A2997 RMK AO2 SLP150 T02330183 10267 20228 51016
PHNL 230453Z 00000KT 10SM FEW018 FEW035 24/18 A2996 RMK AO2 SLP144 T02390183

PHNL 230521Z 2306/2412 VRB05KT P6SM FEW025 FEW045
  FM232100 17010KT P6SM FEW025 SCT045
  FM240400 34008KT P6SM FEW025


PHOG 230554Z 06004KT 10SM SCT020 BKN055 24/20 A2998 RMK AO2 SLP155 T02390200 10278 20239 53015
PHOG 230454Z 09003KT 10SM FEW015 SCT030 BKN055 24/20 A2996 RMK AO2 SLP149 T02440200

PHOG 230521Z 2306/2406 03008KT P6SM SCT030 BKN060
  FM230700 VRB04KT P6SM FEW030 SCT060
  FM232100 01010KT P6SM VCSH FEW025 SCT050 SCT090 AMD LTD TO VIS AND WIND 2309/2316


PHKO 230553Z 36007KT 10SM RA BKN049 BKN070 OVC100 24/22 A2996 RMK AO2 RAB31 SLP144 P0000 60000 T02390217 10272 20239 53016
PHKO 230453Z 36007KT 10SM SCT016 BKN032 BKN039 24/22 A2994 RMK AO2 SLP138 T02440217

PHKO 230521Z 2306/2406 01007KT P6SM VCSH SCT015 BKN035
  FM232100 30009KT P6SM FEW025 SCT050


PHTO 230607Z 35010KT 10SM OVC030 24/21 A2996 RMK AO2 T02390211
PHTO 230553Z 35010KT 10SM OVC029 24/21 A2995 RMK AO2 SLP141 T02440211 10289 20244 52021
PHTO 230535Z 34007KT 10SM BKN028 BKN037 24/21 A2994 RMK AO2 T02440206
PHTO 230453Z 34009KT 10SM OVC035 24/21 A2993 RMK AO2 SLP133 T02440206

PHTO 230521Z 2306/2406 36010KT P6SM VCSH SCT020 BKN035
  FM230800 24005KT P6SM VCSH SCT025 BKN040
  FM232000 07010KT P6SM VCSH SCT020 BKN035


PHLI 230553Z 05005KT 10SM FEW024 22/17 A2999 RMK AO2 SLP154 T02170172 10261 20217 53014
PHLI 230453Z 06005KT 10SM SCT045 23/17 A2998 RMK AO2 SLP149 T02280172

PHLI 230521Z 2306/2406 VRB05KT P6SM FEW045
  FM232000 05008KT P6SM SCT045
  FM240500 35007KT P6SM SCT045